createdAt,value
2023-03-11T00:00:19.990Z,10.45
2023-03-11T00:02:49.106Z,10.47
2023-03-11T00:05:19.069Z,10.46
2023-03-11T00:07:47.288Z,10.48
2023-03-11T00:10:16.827Z,10.49
2023-03-11T00:12:45.499Z,10.49
2023-03-11T00:15:15.658Z,10.51
2023-03-11T00:17:44.018Z,10.51
2023-03-11T00:20:18.940Z,10.49
2023-03-11T00:22:47.496Z,10.49
2023-03-11T00:25:16.278Z,10.49
2023-03-11T00:27:44.777Z,10.48
2023-03-11T00:30:16.316Z,10.49
2023-03-11T00:32:44.783Z,10.46
2023-03-11T00:35:15.480Z,10.44
2023-03-11T00:37:44.248Z,10.42
2023-03-11T00:40:14.647Z,10.39
2023-03-11T00:42:42.777Z,10.39
2023-03-11T00:45:12.748Z,10.38
2023-03-11T00:47:42.682Z,10.37
2023-03-11T00:50:15.714Z,10.39
2023-03-11T00:52:43.688Z,10.38
2023-03-11T00:55:11.987Z,10.38
2023-03-11T00:57:40.209Z,10.40
2023-03-11T01:00:11.869Z,10.39
2023-03-11T01:02:41.601Z,10.41
2023-03-11T01:05:10.341Z,10.41
2023-03-11T01:07:38.466Z,10.41
2023-03-11T01:10:07.687Z,10.40
2023-03-11T01:12:35.605Z,10.37
2023-03-11T01:15:04.667Z,10.35
2023-03-11T01:17:32.679Z,10.35
2023-03-11T01:20:02.028Z,10.34
2023-03-11T01:22:29.888Z,10.34
2023-03-11T01:24:57.824Z,10.32
2023-03-11T01:27:25.723Z,10.31
2023-03-11T01:29:53.695Z,10.31
2023-03-11T01:32:21.653Z,10.28
2023-03-11T01:34:49.586Z,10.26
2023-03-11T01:37:20.273Z,10.26
2023-03-11T01:39:48.190Z,10.25
2023-03-11T01:42:16.341Z,10.24
2023-03-11T01:44:44.288Z,10.25
2023-03-11T01:47:40.603Z,10.24
2023-03-11T01:50:13.705Z,10.21
2023-03-11T01:52:44.328Z,10.21
2023-03-11T01:55:14.945Z,10.20
2023-03-11T01:57:45.105Z,10.19
2023-03-11T02:00:15.739Z,10.19
2023-03-11T02:02:47.086Z,10.18
2023-03-11T02:05:15.421Z,10.18
2023-03-11T02:07:45.049Z,10.14
2023-03-11T02:10:14.664Z,10.12
2023-03-11T02:12:43.697Z,10.09
2023-03-11T02:15:13.283Z,10.05
2023-03-11T02:17:43.630Z,10.04
2023-03-11T02:20:22.477Z,10.05
2023-03-11T02:22:57.113Z,10.05
2023-03-11T02:25:32.213Z,10.05
2023-03-11T02:28:04.228Z,10.05
2023-03-11T02:30:34.885Z,10.06
2023-03-11T02:33:03.673Z,10.09
2023-03-11T02:35:33.128Z,10.10
2023-03-11T02:38:01.171Z,10.10
2023-03-11T02:40:53.129Z,10.11
2023-03-11T02:43:26.112Z,10.13
2023-03-11T02:45:55.549Z,10.16
2023-03-11T02:48:24.080Z,10.15
2023-03-11T02:50:53.681Z,10.13
2023-03-11T02:53:21.655Z,10.13
2023-03-11T02:55:49.910Z,10.13
2023-03-11T02:58:17.790Z,10.13
2023-03-11T03:00:47.210Z,10.15
2023-03-11T03:03:15.890Z,10.14
2023-03-11T03:05:43.739Z,10.16
2023-03-11T03:08:11.777Z,10.17
2023-03-11T03:10:39.835Z,10.17
2023-03-11T03:13:07.836Z,10.15
2023-03-11T03:15:35.687Z,10.17
2023-03-11T03:18:05.233Z,10.15
2023-03-11T03:20:33.485Z,10.14
2023-03-11T03:23:01.980Z,10.14
2023-03-11T03:25:29.939Z,10.15
2023-03-11T03:27:57.843Z,10.13
2023-03-11T03:30:25.890Z,10.13
2023-03-11T03:32:53.858Z,10.12
2023-03-11T03:35:23.362Z,10.11
2023-03-11T03:37:51.252Z,10.09
2023-03-11T03:40:19.575Z,10.09
2023-03-11T03:42:47.532Z,10.07
2023-03-11T03:45:15.440Z,10.04
2023-03-11T03:47:43.550Z,10.02
2023-03-11T03:50:14.351Z,9.99
2023-03-11T03:52:43.592Z,9.95
2023-03-11T03:55:12.955Z,9.92
2023-03-11T03:57:41.571Z,9.90
2023-03-11T04:00:10.885Z,9.88
2023-03-11T04:02:39.456Z,9.87
2023-03-11T04:05:08.630Z,9.85
2023-03-11T04:07:36.875Z,9.84
2023-03-11T04:10:08.031Z,9.84
2023-03-11T04:12:36.030Z,9.82
2023-03-11T04:15:04.023Z,9.79
2023-03-11T04:17:31.939Z,9.76
2023-03-11T04:20:00.058Z,9.76
2023-03-11T04:22:28.115Z,9.75
2023-03-11T04:24:55.947Z,9.72
2023-03-11T04:27:25.235Z,9.71
2023-03-11T04:29:53.183Z,9.71
2023-03-11T04:32:22.574Z,9.69
2023-03-11T04:34:50.890Z,9.71
2023-03-11T04:37:18.780Z,9.70
2023-03-11T04:39:46.619Z,9.70
2023-03-11T04:42:15.813Z,9.69
2023-03-11T04:44:45.113Z,9.69
2023-03-11T04:47:13.019Z,9.70
2023-03-11T04:49:40.990Z,9.68
2023-03-11T04:52:08.933Z,9.70
2023-03-11T04:54:37.500Z,9.71
2023-03-11T04:57:05.715Z,9.70
2023-03-11T04:59:33.698Z,9.70
2023-03-11T05:02:03.033Z,9.69
2023-03-11T05:04:31.032Z,9.71
2023-03-11T05:06:59.079Z,9.71
2023-03-11T05:09:27.030Z,9.74
2023-03-11T05:11:54.974Z,9.77
2023-03-11T05:14:22.881Z,9.78
2023-03-11T05:16:50.898Z,9.81
2023-03-11T05:19:32.446Z,9.83
2023-03-11T05:22:00.275Z,9.81
2023-03-11T05:24:28.343Z,9.83
2023-03-11T05:26:56.994Z,9.84
2023-03-11T05:29:26.082Z,9.86
2023-03-11T05:31:54.455Z,9.87
2023-03-11T05:34:24.097Z,9.88
2023-03-11T05:36:52.060Z,9.91
2023-03-11T05:39:19.973Z,9.94
2023-03-11T05:41:49.137Z,9.95
2023-03-11T05:44:17.149Z,9.96
2023-03-11T05:46:45.092Z,9.95
2023-03-11T05:49:13.003Z,9.94
2023-03-11T05:51:42.346Z,9.95
2023-03-11T05:54:15.227Z,9.98
2023-03-11T05:56:43.959Z,9.99
2023-03-11T05:59:13.746Z,10.01
2023-03-11T06:01:44.183Z,9.99
2023-03-11T06:04:12.727Z,9.99
2023-03-11T06:06:42.640Z,9.97
2023-03-11T06:09:13.923Z,9.97
2023-03-11T06:11:42.153Z,9.96
2023-03-11T06:14:12.983Z,9.96
2023-03-11T06:16:41.242Z,9.98
2023-03-11T06:19:09.390Z,10.02
2023-03-11T06:21:37.376Z,9.99
2023-03-11T06:24:07.362Z,10.01
2023-03-11T06:26:35.482Z,10.02
2023-03-11T06:29:04.082Z,10.03
2023-03-11T06:31:32.388Z,10.06
2023-03-11T06:34:00.526Z,10.09
2023-03-11T06:36:28.514Z,10.10
2023-03-11T06:38:56.611Z,10.13
2023-03-11T06:41:26.301Z,10.13
2023-03-11T06:43:54.269Z,10.13
2023-03-11T06:46:24.980Z,10.14
2023-03-11T06:48:53.710Z,10.16
2023-03-11T06:51:22.457Z,10.16
2023-03-11T06:53:51.919Z,10.17
2023-03-11T06:56:21.168Z,10.17
2023-03-11T06:58:51.183Z,10.15
2023-03-11T07:01:20.762Z,10.11
2023-03-11T07:03:50.402Z,10.14
2023-03-11T07:06:20.232Z,10.17
2023-03-11T07:08:49.175Z,10.16
2023-03-11T07:11:20.186Z,10.17
2023-03-11T07:13:48.507Z,10.17
2023-03-11T07:16:19.909Z,10.18
2023-03-11T07:18:49.333Z,10.20
2023-03-11T07:21:21.200Z,10.23
2023-03-11T07:23:52.976Z,10.26
2023-03-11T07:26:21.028Z,10.28
2023-03-11T07:28:49.534Z,10.30
2023-03-11T07:31:20.355Z,10.32
2023-03-11T07:33:48.617Z,10.36
2023-03-11T07:36:18.743Z,10.39
2023-03-11T07:38:47.566Z,10.40
2023-03-11T07:41:16.855Z,10.46
2023-03-11T07:43:45.257Z,10.52
2023-03-11T07:46:18.494Z,10.56
2023-03-11T07:48:48.287Z,10.62
2023-03-11T07:51:17.919Z,10.65
2023-03-11T07:53:46.938Z,10.67
2023-03-11T07:56:16.753Z,10.69
2023-03-11T07:58:45.904Z,10.74
2023-03-11T08:01:16.800Z,10.78
2023-03-11T08:03:46.824Z,10.83
2023-03-11T08:06:17.900Z,10.89
2023-03-11T08:08:45.947Z,10.93
2023-03-11T08:11:15.094Z,10.99
2023-03-11T08:13:43.400Z,11.04
2023-03-11T08:16:13.874Z,11.11
2023-03-11T08:18:41.949Z,11.11
2023-03-11T08:21:12.688Z,11.13
2023-03-11T08:23:43.175Z,11.17
2023-03-11T08:26:14.821Z,11.23
2023-03-11T08:28:43.145Z,11.26
2023-03-11T08:31:15.221Z,11.30
2023-03-11T08:33:43.761Z,11.38
2023-03-11T08:36:12.100Z,11.39
2023-03-11T08:38:41.632Z,11.43
2023-03-11T08:41:09.800Z,11.47
2023-03-11T08:43:39.015Z,11.49
2023-03-11T08:46:08.080Z,11.56
2023-03-11T08:48:37.828Z,11.59
2023-03-11T08:51:11.009Z,11.63
2023-03-11T08:53:38.982Z,11.71
2023-03-11T08:56:09.232Z,11.77
2023-03-11T08:58:37.508Z,11.88
2023-03-11T09:01:05.976Z,11.99
2023-03-11T09:03:35.456Z,12.08
2023-03-11T09:06:05.283Z,12.17
2023-03-11T09:08:33.465Z,12.19
2023-03-11T09:11:01.686Z,12.21
2023-03-11T09:13:33.335Z,12.24
2023-03-11T09:16:01.555Z,12.29
2023-03-11T09:18:29.592Z,12.32
2023-03-11T09:20:58.532Z,12.37
2023-03-11T09:23:26.923Z,12.44
2023-03-11T09:25:54.874Z,12.52
2023-03-11T09:28:23.556Z,12.60
2023-03-11T09:30:53.375Z,12.70
2023-03-11T09:33:21.351Z,12.76
2023-03-11T09:35:49.393Z,12.85
2023-03-11T09:38:17.335Z,12.95
2023-03-11T09:40:53.604Z,13.03
2023-03-11T09:43:35.968Z,13.06
2023-03-11T09:46:27.504Z,13.12
2023-03-11T09:49:02.135Z,13.14
2023-03-11T09:51:34.089Z,13.23
2023-03-11T09:54:06.150Z,13.28
2023-03-11T09:56:37.141Z,13.38
2023-03-11T09:59:10.453Z,13.51
2023-03-11T10:01:43.951Z,13.64
2023-03-11T10:04:17.955Z,13.77
2023-03-11T10:06:47.020Z,13.90
2023-03-11T10:09:34.568Z,13.99
2023-03-11T10:12:20.314Z,14.04
2023-03-11T10:15:05.120Z,13.99
2023-03-11T10:17:54.104Z,13.94
2023-03-11T10:20:28.123Z,13.86
2023-03-11T10:23:09.093Z,13.81
2023-03-11T10:25:51.102Z,13.79
2023-03-11T10:28:21.388Z,13.79
2023-03-11T10:30:54.295Z,13.79
2023-03-11T10:33:30.509Z,13.75
2023-03-11T10:36:04.324Z,13.71
2023-03-11T10:38:36.037Z,13.74
2023-03-11T10:41:08.586Z,13.76
2023-03-11T10:43:40.305Z,13.83
2023-03-11T10:46:15.938Z,13.90
2023-03-11T10:48:45.431Z,13.95
2023-03-11T10:51:18.114Z,14.01
2023-03-11T10:53:48.334Z,14.08
2023-03-11T10:56:27.252Z,14.15
2023-03-11T10:58:55.354Z,14.24
2023-03-11T11:01:23.754Z,14.33
2023-03-11T11:03:55.585Z,14.41
2023-03-11T11:06:28.971Z,14.47
2023-03-11T11:09:08.389Z,14.52
2023-03-11T11:11:36.646Z,14.53
2023-03-11T11:14:04.622Z,14.57
2023-03-11T11:16:35.207Z,14.61
2023-03-11T11:19:09.188Z,14.62
2023-03-11T11:21:39.427Z,14.62
2023-03-11T11:24:27.334Z,14.65
2023-03-11T11:27:06.188Z,14.65
2023-03-11T11:29:34.869Z,14.64
2023-03-11T11:32:19.131Z,14.62
2023-03-11T11:34:59.804Z,14.62
2023-03-11T11:37:31.983Z,14.70
2023-03-11T11:40:11.194Z,14.72
2023-03-11T11:42:41.504Z,14.78
2023-03-11T11:45:16.302Z,14.88
2023-03-11T11:47:50.084Z,15.01
2023-03-11T11:50:27.391Z,15.10
2023-03-11T11:52:58.524Z,15.18
2023-03-11T11:55:29.672Z,15.22
2023-03-11T11:57:58.655Z,15.17
2023-03-11T12:00:46.057Z,15.17
2023-03-11T12:03:45.660Z,15.22
2023-03-11T12:06:24.809Z,15.40
2023-03-11T12:09:05.497Z,15.63
2023-03-11T12:11:41.921Z,15.79
2023-03-11T12:14:19.583Z,15.85
2023-03-11T12:16:54.938Z,15.85
2023-03-11T12:19:34.263Z,15.89
2023-03-11T12:22:36.708Z,15.94
2023-03-11T12:25:28.242Z,15.96
2023-03-11T12:28:04.873Z,16.00
2023-03-11T12:30:34.828Z,16.01
2023-03-11T12:33:06.579Z,16.03
2023-03-11T12:35:37.126Z,16.09
2023-03-11T12:38:19.724Z,16.11
2023-03-11T12:40:50.021Z,16.17
2023-03-11T12:44:11.936Z,16.26
2023-03-11T12:47:17.821Z,16.36
2023-03-11T12:49:47.383Z,16.46
2023-03-11T12:52:21.103Z,16.51
2023-03-11T12:55:11.594Z,16.48
2023-03-11T12:57:53.360Z,16.42
2023-03-11T13:00:30.585Z,16.26
2023-03-11T13:03:26.840Z,16.13
2023-03-11T13:06:01.821Z,16.00
2023-03-11T13:08:37.129Z,15.85
2023-03-11T13:11:43.574Z,15.75
2023-03-11T13:14:23.033Z,15.62
2023-03-11T13:16:51.368Z,15.53
2023-03-11T13:19:49.610Z,15.48
2023-03-11T13:23:06.896Z,15.37
2023-03-11T13:25:40.325Z,15.25
2023-03-11T13:28:33.633Z,15.25
2023-03-11T13:31:15.825Z,15.19
2023-03-11T13:33:50.798Z,15.15
2023-03-11T13:36:26.897Z,15.12
2023-03-11T13:39:20.918Z,15.16
2023-03-11T13:41:49.431Z,15.16
2023-03-11T13:44:29.640Z,15.11
2023-03-11T13:47:03.942Z,15.05
2023-03-11T13:49:41.357Z,15.01
2023-03-11T13:52:11.413Z,14.97
2023-03-11T13:54:45.159Z,14.93
2023-03-11T13:57:29.235Z,14.86
2023-03-11T14:00:05.660Z,14.79
2023-03-11T14:02:33.838Z,14.74
2023-03-11T14:05:07.074Z,14.66
2023-03-11T14:07:38.966Z,14.62
2023-03-11T14:10:33.998Z,14.59
2023-03-11T14:13:18.050Z,14.50
2023-03-11T14:15:54.033Z,14.42
2023-03-11T14:18:35.969Z,14.37
2023-03-11T14:21:05.904Z,14.32
2023-03-11T14:23:37.561Z,14.27
2023-03-11T14:26:09.058Z,14.25
2023-03-11T14:28:41.605Z,14.25
2023-03-11T14:31:24.527Z,14.24
2023-03-11T14:34:04.364Z,14.26
2023-03-11T14:36:40.620Z,14.25
2023-03-11T14:39:24.137Z,14.25
2023-03-11T14:41:54.844Z,14.21
2023-03-11T14:44:24.741Z,14.22
2023-03-11T14:46:59.673Z,14.23
2023-03-11T14:49:27.828Z,14.24
2023-03-11T14:52:02.921Z,14.24
2023-03-11T14:54:35.543Z,14.24
2023-03-11T14:57:08.144Z,14.25
2023-03-11T14:59:38.601Z,14.22
2023-03-11T15:02:34.753Z,14.19
2023-03-11T15:05:07.487Z,14.14
2023-03-11T15:07:36.759Z,14.11
2023-03-11T15:10:09.896Z,14.11
2023-03-11T15:12:42.519Z,14.05
2023-03-11T15:15:27.919Z,14.02
2023-03-11T15:17:59.676Z,14.00
2023-03-11T15:20:31.621Z,14.00
2023-03-11T15:23:02.140Z,13.99
2023-03-11T15:25:33.287Z,13.99
2023-03-11T15:28:14.624Z,13.97
2023-03-11T15:30:42.645Z,13.99
2023-03-11T15:33:24.144Z,13.98
2023-03-11T15:35:52.103Z,13.96
2023-03-11T15:38:23.716Z,13.94
2023-03-11T15:40:55.688Z,13.91
2023-03-11T15:43:29.650Z,13.93
2023-03-11T15:45:59.187Z,13.93
2023-03-11T15:48:30.055Z,13.91
2023-03-11T15:50:59.706Z,13.91
2023-03-11T15:53:29.354Z,13.88
2023-03-11T15:56:06.949Z,13.87
2023-03-11T15:58:38.229Z,13.87
2023-03-11T16:01:06.583Z,13.85
2023-03-11T16:03:35.882Z,13.84
2023-03-11T16:06:03.775Z,13.81
2023-03-11T16:08:32.136Z,13.81
2023-03-11T16:11:00.021Z,13.80
2023-03-11T16:13:28.178Z,13.78
2023-03-11T16:15:56.188Z,13.77
2023-03-11T16:18:24.128Z,13.75
2023-03-11T16:20:56.286Z,13.73
2023-03-11T16:23:26.694Z,13.73
2023-03-11T16:25:58.676Z,13.76
2023-03-11T16:28:26.563Z,13.79
2023-03-11T16:30:54.555Z,13.83
2023-03-11T16:33:22.804Z,13.86
2023-03-11T16:35:51.203Z,13.89
2023-03-11T16:38:23.112Z,13.93
2023-03-11T16:40:58.101Z,13.95
2023-03-11T16:43:26.694Z,13.95
2023-03-11T16:45:55.054Z,13.94
2023-03-11T16:48:23.010Z,13.93
2023-03-11T16:50:51.241Z,13.90
2023-03-11T16:53:20.667Z,13.93
2023-03-11T16:55:49.128Z,13.95
2023-03-11T16:58:17.349Z,13.96
2023-03-11T17:00:45.736Z,13.95
2023-03-11T17:03:14.218Z,13.93
2023-03-11T17:05:42.505Z,14.00
2023-03-11T17:08:11.289Z,14.09
2023-03-11T17:10:42.827Z,14.18
2023-03-11T17:13:12.260Z,14.32
2023-03-11T17:15:42.548Z,14.39
2023-03-11T17:18:10.779Z,14.48
2023-03-11T17:20:40.787Z,14.56
2023-03-11T17:23:08.790Z,14.56
2023-03-11T17:25:42.655Z,14.68
2023-03-11T17:28:10.926Z,14.72
2023-03-11T17:30:43.718Z,14.81
2023-03-11T17:33:12.168Z,14.91
2023-03-11T17:35:40.840Z,15.00
2023-03-11T17:40:56.288Z,15.16
2023-03-11T17:43:24.851Z,15.15
2023-03-11T17:45:53.804Z,15.22
2023-03-11T17:48:22.164Z,15.24
2023-03-11T17:50:50.585Z,15.27
2023-03-11T17:53:18.567Z,15.26
2023-03-11T17:55:46.741Z,15.24
2023-03-11T17:58:31.436Z,15.24
2023-03-11T18:00:59.842Z,15.27
2023-03-11T18:03:27.718Z,15.30
2023-03-11T18:05:56.620Z,15.26
2023-03-11T18:08:24.606Z,15.27
2023-03-11T18:10:53.104Z,15.23
2023-03-11T18:13:21.569Z,15.23
2023-03-11T18:15:58.511Z,15.22
2023-03-11T18:18:26.707Z,15.20
2023-03-11T18:20:54.711Z,15.19
2023-03-11T18:23:22.646Z,15.25
2023-03-11T18:25:52.665Z,15.25
2023-03-11T18:28:21.137Z,15.28
2023-03-11T18:30:49.114Z,15.29
2023-03-11T18:33:18.654Z,15.25
2023-03-11T18:35:46.693Z,15.29
2023-03-11T18:38:15.827Z,15.27
2023-03-11T18:40:44.468Z,15.26
2023-03-11T18:43:14.768Z,15.31
2023-03-11T18:45:42.810Z,15.32
2023-03-11T18:48:11.259Z,15.33
2023-03-11T18:50:40.687Z,15.32
2023-03-11T18:53:09.967Z,15.36
2023-03-11T18:55:38.022Z,15.37
2023-03-11T18:58:09.404Z,15.36
2023-03-11T19:00:37.660Z,15.35
2023-03-11T19:03:05.547Z,15.34
2023-03-11T19:05:33.628Z,15.32
2023-03-11T19:08:04.253Z,15.30
2023-03-11T19:10:32.536Z,15.30
2023-03-11T19:13:00.586Z,15.31
2023-03-11T19:15:28.864Z,15.27
2023-03-11T19:18:06.341Z,15.29
2023-03-11T19:20:36.250Z,15.30
2023-03-11T19:23:06.623Z,15.31
2023-03-11T19:25:35.426Z,15.28
2023-03-11T19:28:03.895Z,15.30
2023-03-11T19:30:32.001Z,15.31
2023-03-11T19:32:59.973Z,15.27
2023-03-11T19:35:27.949Z,15.27
2023-03-11T19:37:57.483Z,15.27
2023-03-11T19:40:30.164Z,15.28
2023-03-11T19:42:59.423Z,15.28
2023-03-11T19:45:29.641Z,15.27
2023-03-11T19:48:00.430Z,15.29
2023-03-11T19:50:28.482Z,15.27
2023-03-11T19:52:56.568Z,15.25
2023-03-11T19:55:24.530Z,15.24
2023-03-11T19:57:53.999Z,15.26
2023-03-11T20:00:24.135Z,15.24
2023-03-11T20:02:52.343Z,15.27
2023-03-11T20:05:20.975Z,15.21
2023-03-11T20:07:49.041Z,15.19
2023-03-11T20:10:17.737Z,15.23
2023-03-11T20:13:01.186Z,15.20
2023-03-11T20:15:31.862Z,15.23
2023-03-11T20:18:01.102Z,15.18
2023-03-11T20:20:29.761Z,15.20
2023-03-11T20:22:58.185Z,15.15
2023-03-11T20:25:31.090Z,15.16
2023-03-11T20:27:59.643Z,15.09
2023-03-11T20:30:28.328Z,15.06
2023-03-11T20:32:58.353Z,14.99
2023-03-11T20:35:26.783Z,14.97
2023-03-11T20:37:54.862Z,14.88
2023-03-11T20:40:23.235Z,14.83
2023-03-11T20:42:51.909Z,14.80
2023-03-11T20:45:22.160Z,14.78
2023-03-11T20:47:53.806Z,14.68
2023-03-11T20:50:24.444Z,14.72
2023-03-11T20:52:52.457Z,14.67
2023-03-11T20:55:21.878Z,14.73
2023-03-11T20:57:49.901Z,14.77
2023-03-11T21:00:18.762Z,14.78
2023-03-11T21:02:47.625Z,14.88
2023-03-11T21:05:15.928Z,14.87
2023-03-11T21:07:45.630Z,14.93
2023-03-11T21:10:14.507Z,15.02
2023-03-11T21:12:43.642Z,15.01
2023-03-11T21:15:12.689Z,15.03
2023-03-11T21:17:40.624Z,15.08
2023-03-11T21:20:09.181Z,15.04
2023-03-11T21:22:37.392Z,15.14
2023-03-11T21:25:08.709Z,15.12
2023-03-11T21:27:36.778Z,15.13
2023-03-11T21:30:06.625Z,15.11
2023-03-11T21:32:35.434Z,15.09
2023-03-11T21:35:04.875Z,15.09
2023-03-11T21:37:33.232Z,15.07
2023-03-11T21:40:01.679Z,15.08
2023-03-11T21:42:31.788Z,15.06
2023-03-11T21:45:00.746Z,15.14
2023-03-11T21:47:33.439Z,15.04
2023-03-11T21:50:01.673Z,15.04
2023-03-11T21:52:29.861Z,15.03
2023-03-11T21:54:58.308Z,15.03
2023-03-11T21:57:26.434Z,15.11
2023-03-11T21:59:55.877Z,15.01
2023-03-11T22:02:23.895Z,15.01
2023-03-11T22:04:52.581Z,15.04
2023-03-11T22:07:22.479Z,15.05
2023-03-11T22:09:53.008Z,15.07
2023-03-11T22:12:21.158Z,15.14
2023-03-11T22:14:49.217Z,15.09
2023-03-11T22:17:18.828Z,15.10
2023-03-11T22:19:47.214Z,15.13
2023-03-11T22:22:15.439Z,15.11
2023-03-11T22:24:43.402Z,15.09
2023-03-11T22:27:11.429Z,15.11
2023-03-11T22:29:40.731Z,15.14
2023-03-11T22:32:08.755Z,15.16
2023-03-11T22:34:38.156Z,15.18
2023-03-11T22:37:08.929Z,15.18
2023-03-11T22:39:37.373Z,15.16
2023-03-11T22:42:05.515Z,15.13
2023-03-11T22:44:33.683Z,15.11
2023-03-11T22:47:01.700Z,15.14
2023-03-11T22:49:29.650Z,15.13
2023-03-11T22:51:59.225Z,15.18
2023-03-11T22:54:27.505Z,15.13
2023-03-11T22:56:55.808Z,15.14
2023-03-11T22:59:27.326Z,15.16
2023-03-11T23:01:55.647Z,15.13
2023-03-11T23:04:23.671Z,15.14
2023-03-11T23:06:54.496Z,15.14
2023-03-11T23:09:24.636Z,15.06
2023-03-11T23:11:55.153Z,15.06
2023-03-11T23:14:30.619Z,15.11
2023-03-11T23:17:06.220Z,15.06
2023-03-11T23:19:34.311Z,15.03
2023-03-11T23:22:02.241Z,15.00
2023-03-11T23:24:31.988Z,15.00
2023-03-11T23:26:59.803Z,15.03
2023-03-11T23:29:27.711Z,15.00
2023-03-11T23:31:55.727Z,15.01
2023-03-11T23:34:23.674Z,14.99
2023-03-11T23:36:51.668Z,14.94
2023-03-11T23:39:19.573Z,14.98
2023-03-11T23:41:49.212Z,14.95
2023-03-11T23:44:17.104Z,14.93
2023-03-11T23:46:48.009Z,15.01
2023-03-11T23:49:16.175Z,14.93
2023-03-11T23:51:44.453Z,14.90
2023-03-11T23:54:12.367Z,14.95
2023-03-11T23:56:40.247Z,14.93
2023-03-11T23:59:09.542Z,14.91
